Главная страница
METAR-TAF:

METAR-TAF

Аэропорты :

Международный аэропорт имени Анри Коанды

Бухарест, Румыния

широта: 44-33N, долгота: 026-06E, высота над уровнем моря: 95 м

Текущие метеонаблюдения

Эта сводка был подготовлена 23 минут назад, в 03:00 UTC
Ветер 1 Узел переменных направлений
Температура 3°C
Влажность 87%
Давление 1016 hPa
Видимость 10 км и более
Нет облачности ниже 1500 м, и нет кучево-дождевой облачности

METAR: LROP 040300Z VRB01KT CAVOK 03/01 Q1016 NOSIG

Время: 06:23 (03:23 UTC)

Прогноз

Эта сводка был подготовлена 4 часа и 23 минут назад, в 23:00 UTC
Прогноз действительный с 04-го 00 UTC до 04-го 24 UTC
Ветер 4 Узел переменных направлений
Видимость 10 км и более
Нет облачности ниже 1500 м, и нет кучево-дождевой облачности
изменения
С 04-го 05 UTC до 04-го 07 UTC
Ветер 12 Узел от восточно-северо-восточный

TAF: LROP 032300Z 0400/0424 VRB04KT CAVOK BECMG 0405/0407 07012KT

Метеонаблюдения и прогнозы для более 4000 аэропортов (сводки METAR и TAF).

Имеющиеся станции представлены на карте желтыми и красными точками.

Чтобы увидеть название станции, наведите на нее мышь.

Затем щелкните, чтобы увидеть метеонаблюдения и метеопрогнозы.

Управление картой: чтобы увеличить масштаб, щелкните зеленые кнопки с черным крестиком; чтобы уменьшить масштаб, щелкните зеленую кнопку с тире; для просмотра соседних карт щелкайте зеленые стрелки.


METAR-TAF: